createdAt,value
2024-01-30T00:02:21.223Z,96.82
2024-01-30T00:07:27.096Z,97.24
2024-01-30T00:12:29.352Z,97.31
2024-01-30T00:17:31.566Z,97.52
2024-01-30T00:22:33.753Z,97.71
2024-01-30T00:27:35.825Z,97.66
2024-01-30T00:32:38.158Z,97.81
2024-01-30T00:37:40.280Z,97.92
2024-01-30T00:42:43.709Z,97.96
2024-01-30T00:47:45.814Z,98.30
2024-01-30T00:52:47.925Z,98.61
2024-01-30T00:57:49.996Z,98.51
2024-01-30T01:02:52.031Z,98.96
2024-01-30T01:12:59.567Z,98.68
2024-01-30T01:18:01.981Z,98.71
2024-01-30T01:23:04.630Z,98.74
2024-01-30T01:28:06.953Z,98.78
2024-01-30T01:33:09.328Z,98.83
2024-01-30T01:38:12.079Z,98.71
2024-01-30T01:43:14.047Z,98.78
2024-01-30T01:48:16.520Z,99.14
2024-01-30T01:53:23.202Z,99.17
2024-01-30T01:58:30.228Z,98.77
2024-01-30T02:03:32.308Z,98.88
2024-01-30T02:08:34.688Z,98.63
2024-01-30T02:13:36.994Z,98.91
2024-01-30T02:18:43.436Z,99.09
2024-01-30T02:23:47.799Z,98.99
2024-01-30T02:28:49.692Z,98.83
2024-01-30T02:33:51.743Z,98.86
2024-01-30T02:38:53.823Z,98.82
2024-01-30T02:43:55.894Z,98.78
2024-01-30T02:48:57.836Z,98.74
2024-01-30T02:54:00.059Z,98.69
2024-01-30T02:59:01.985Z,98.76
2024-01-30T03:04:04.262Z,98.77
2024-01-30T03:09:06.291Z,98.64
2024-01-30T03:14:09.442Z,98.53
2024-01-30T03:19:11.490Z,98.26
2024-01-30T03:24:13.486Z,98.00
2024-01-30T03:29:15.466Z,97.83
2024-01-30T03:34:17.543Z,98.03
2024-01-30T03:39:19.620Z,97.76
2024-01-30T03:44:21.615Z,97.80
2024-01-30T03:49:32.350Z,97.59
2024-01-30T03:54:34.228Z,97.55
2024-01-30T03:59:36.044Z,98.03
2024-01-30T04:04:38.245Z,97.83
2024-01-30T04:09:40.547Z,97.72
2024-01-30T04:14:42.378Z,97.71
2024-01-30T04:19:44.248Z,97.82
2024-01-30T04:24:46.254Z,97.73
2024-01-30T04:29:48.248Z,97.73
2024-01-30T04:34:50.204Z,97.71
2024-01-30T04:39:52.417Z,97.73
2024-01-30T04:44:55.213Z,97.45
2024-01-30T04:49:57.121Z,97.61
2024-01-30T04:54:59.366Z,97.31
2024-01-30T05:00:01.216Z,97.30
2024-01-30T05:07:11.359Z,97.05
2024-01-30T05:12:13.406Z,96.96
2024-01-30T05:17:15.459Z,96.93
2024-01-30T05:22:19.272Z,96.93
2024-01-30T05:27:21.232Z,96.89
2024-01-30T05:32:23.226Z,96.85
2024-01-30T05:37:25.216Z,96.75
2024-01-30T05:42:28.023Z,96.65
2024-01-30T05:47:29.923Z,97.03
2024-01-30T05:52:32.029Z,96.81
2024-01-30T05:57:33.985Z,96.75
2024-01-30T06:02:36.051Z,96.44
2024-01-30T06:07:38.022Z,96.50
2024-01-30T06:12:41.564Z,96.45
2024-01-30T06:17:43.393Z,96.50
2024-01-30T06:22:45.293Z,96.58
2024-01-30T06:27:47.395Z,96.63
2024-01-30T06:32:50.065Z,96.70
2024-01-30T06:37:55.343Z,96.55
2024-01-30T06:42:57.198Z,96.14
2024-01-30T06:48:02.951Z,96.12
2024-01-30T06:53:05.075Z,95.57
2024-01-30T07:03:12.163Z,95.09
2024-01-30T07:08:18.667Z,94.79
2024-01-30T07:13:20.611Z,94.32
2024-01-30T07:18:22.628Z,94.10
2024-01-30T07:23:24.800Z,93.67
2024-01-30T07:28:26.855Z,92.85
2024-01-30T07:33:29.130Z,92.64
2024-01-30T07:38:33.233Z,91.94
2024-01-30T07:48:39.906Z,89.89
2024-01-30T07:53:42.818Z,89.74
2024-01-30T07:58:44.676Z,88.94
2024-01-30T08:03:46.531Z,88.41
2024-01-30T08:08:54.329Z,88.17
2024-01-30T09:57:04.513Z,65.84
2024-01-30T10:02:06.132Z,65.17
2024-01-30T10:07:09.232Z,65.85
2024-01-30T10:12:10.869Z,65.80
2024-01-30T10:17:17.816Z,65.11
2024-01-30T10:22:26.498Z,65.67
2024-01-30T10:27:30.007Z,65.16
2024-01-30T10:32:31.463Z,63.39
2024-01-30T10:37:33.799Z,64.06
2024-01-30T10:42:37.650Z,63.27
2024-01-30T10:47:41.399Z,63.30
2024-01-30T10:52:44.406Z,62.72
2024-01-30T10:57:45.706Z,63.18
2024-01-30T11:02:48.124Z,61.89
2024-01-30T11:07:49.938Z,60.86
2024-01-30T11:12:52.172Z,61.17
2024-01-30T11:17:53.538Z,60.59
2024-01-30T11:22:56.960Z,59.80
2024-01-30T11:27:58.469Z,59.77
2024-01-30T11:33:00.648Z,59.46
2024-01-30T11:38:06.323Z,59.16
2024-01-30T11:43:09.828Z,58.53
2024-01-30T11:48:13.568Z,58.04
2024-01-30T11:53:15.207Z,58.63
2024-01-30T11:58:16.528Z,58.07
2024-01-30T12:03:17.934Z,57.12
2024-01-30T12:08:19.249Z,56.31
2024-01-30T12:13:21.006Z,56.65
2024-01-30T12:18:23.394Z,56.35
2024-01-30T12:23:26.308Z,56.29
2024-01-30T12:28:27.712Z,56.21
2024-01-30T12:33:29.991Z,55.83
2024-01-30T12:38:32.113Z,55.26
2024-01-30T12:43:38.263Z,56.11
2024-01-30T12:48:40.630Z,55.71
2024-01-30T12:53:42.048Z,55.84
2024-01-30T12:58:44.742Z,54.84
2024-01-30T13:03:46.800Z,54.76
2024-01-30T13:08:48.255Z,55.13
2024-01-30T13:13:49.596Z,54.61
2024-01-30T13:18:50.933Z,54.75
2024-01-30T13:23:54.562Z,54.60
2024-01-30T13:28:55.993Z,54.46
2024-01-30T13:33:57.342Z,54.40
2024-01-30T13:38:58.626Z,54.92
2024-01-30T13:43:59.886Z,55.43
2024-01-30T13:49:01.780Z,54.27
2024-01-30T13:54:03.248Z,54.63
2024-01-30T13:59:06.029Z,54.03
2024-01-30T14:04:10.408Z,55.20
2024-01-30T14:09:15.594Z,55.37
2024-01-30T14:14:16.820Z,54.84
2024-01-30T14:19:18.169Z,55.18
2024-01-30T14:24:19.410Z,55.65
2024-01-30T14:29:20.751Z,55.28
2024-01-30T14:34:22.050Z,54.84
2024-01-30T14:39:23.643Z,56.49
2024-01-30T14:44:25.016Z,55.11
2024-01-30T14:49:26.242Z,55.79
2024-01-30T14:54:27.912Z,55.84
2024-01-30T14:59:29.124Z,56.79
2024-01-30T15:04:30.615Z,57.11
2024-01-30T15:09:32.769Z,57.74
2024-01-30T15:14:34.354Z,58.09
2024-01-30T15:19:35.652Z,59.18
2024-01-30T15:24:37.124Z,59.89
2024-01-30T15:29:38.398Z,60.73
2024-01-30T15:34:39.625Z,61.51
2024-01-30T15:39:41.013Z,62.61
2024-01-30T15:44:42.244Z,63.70
2024-01-30T15:49:43.493Z,64.48
2024-01-30T15:54:46.518Z,65.36
2024-01-30T15:59:47.756Z,66.29
2024-01-30T16:04:50.034Z,67.05
2024-01-30T16:09:51.881Z,67.78
2024-01-30T16:14:54.033Z,68.55
2024-01-30T16:19:55.346Z,69.54
2024-01-30T16:24:56.699Z,70.44
2024-01-30T16:29:57.941Z,71.83
2024-01-30T16:34:59.126Z,73.08
2024-01-30T16:40:00.475Z,73.53
2024-01-30T16:45:02.044Z,73.91
2024-01-30T16:50:03.953Z,73.55
2024-01-30T16:55:05.819Z,73.86
2024-01-30T17:00:07.600Z,73.82
2024-01-30T17:05:16.226Z,74.05
2024-01-30T17:10:25.381Z,73.70
2024-01-30T17:15:26.628Z,73.65
2024-01-30T17:20:28.391Z,73.35
2024-01-30T17:25:30.276Z,73.57
2024-01-30T17:30:31.645Z,73.41
2024-01-30T17:35:33.101Z,73.02
2024-01-30T17:40:34.584Z,73.28
2024-01-30T17:45:37.883Z,73.01
2024-01-30T17:50:39.066Z,72.37
2024-01-30T17:55:40.434Z,72.02
2024-01-30T18:00:41.653Z,71.27
2024-01-30T18:05:43.266Z,70.96
2024-01-30T18:10:44.531Z,70.45
2024-01-30T18:15:45.719Z,69.87
2024-01-30T18:20:47.113Z,69.53
2024-01-30T18:25:49.307Z,69.37
2024-01-30T18:30:50.475Z,69.56
2024-01-30T18:35:51.647Z,69.17
2024-01-30T18:40:53.032Z,69.11
2024-01-30T18:45:55.028Z,68.46
2024-01-30T18:50:56.667Z,68.12
2024-01-30T18:55:57.910Z,67.74
2024-01-30T19:00:59.416Z,68.07
2024-01-30T19:06:01.120Z,68.06
2024-01-30T19:11:02.534Z,67.71
2024-01-30T19:16:04.242Z,67.78
2024-01-30T19:21:05.665Z,68.15
2024-01-30T19:26:08.062Z,68.31
2024-01-30T19:31:09.577Z,68.15
2024-01-30T19:36:12.117Z,68.47
2024-01-30T19:41:14.189Z,68.72
2024-01-30T19:46:16.158Z,68.22
2024-01-30T19:51:18.656Z,68.55
2024-01-30T19:56:19.979Z,69.15
2024-01-30T20:01:21.720Z,69.13
2024-01-30T20:06:23.317Z,68.95
2024-01-30T20:11:25.601Z,69.13
2024-01-30T20:16:37.845Z,69.33
2024-01-30T20:21:39.381Z,69.34
2024-01-30T20:26:41.135Z,69.27
2024-01-30T20:31:43.839Z,69.35
2024-01-30T20:36:48.364Z,69.20
2024-01-30T20:41:49.890Z,68.68
2024-01-30T20:46:51.410Z,68.17
2024-01-30T20:51:53.046Z,68.20
2024-01-30T20:56:54.486Z,68.14
2024-01-30T21:01:56.018Z,67.79
2024-01-30T21:06:57.594Z,68.01
2024-01-30T21:12:08.989Z,68.13
2024-01-30T21:17:10.187Z,68.34
2024-01-30T21:22:11.457Z,68.35
2024-01-30T21:27:12.775Z,68.42
2024-01-30T21:32:13.899Z,68.64
2024-01-30T21:37:16.254Z,68.97
2024-01-30T21:42:18.828Z,69.04
2024-01-30T21:47:20.106Z,69.82
2024-01-30T21:52:21.712Z,69.91
2024-01-30T21:57:22.790Z,70.16
2024-01-30T22:02:23.964Z,70.72
2024-01-30T22:07:29.778Z,70.82
2024-01-30T22:12:31.319Z,71.21
2024-01-30T22:17:32.789Z,71.87
2024-01-30T22:22:34.577Z,72.58
2024-01-30T22:27:37.565Z,72.80
2024-01-30T22:32:38.882Z,73.31
2024-01-30T22:37:40.188Z,73.55
2024-01-30T22:42:42.479Z,73.68
2024-01-30T22:47:45.090Z,74.05
2024-01-30T22:52:46.942Z,74.45
2024-01-30T22:57:48.740Z,74.60
2024-01-30T23:02:53.669Z,74.64
2024-01-30T23:07:54.944Z,74.58
2024-01-30T23:12:56.103Z,75.09
2024-01-30T23:17:58.131Z,75.28
2024-01-30T23:22:59.546Z,75.73
2024-01-30T23:28:00.926Z,76.10
2024-01-30T23:33:02.202Z,76.79
2024-01-30T23:38:03.458Z,77.00
2024-01-30T23:43:04.706Z,77.56
2024-01-30T23:48:06.737Z,77.93
2024-01-30T23:53:08.248Z,78.28
2024-01-30T23:58:09.472Z,78.54
